.
WxDataArchive / Data Records for 2013-03-02
2013-03-01 March 2013 2013-03-03

Data Records for Saturday, 02 March 2013

Time	Temp	Chill	HIndex	Humid	Dewpt	 Wind 	HiWind	WindDir	Rain 	Barom 
-----	----	-----	------	-----	-----	------	------	-------	-----	----- 
00:00	25.7	25.7	25.7	71	17.6	0	2	315	0.00	30.115 
00:05	25.6	25.6	25.6	71	17.5	0	2	315	0.00	30.115 
00:10	25.7	25.7	25.7	71	17.6	0	1	315	0.00	30.115 
00:15	25.7	25.7	25.7	71	17.6	0	1	315	0.00	30.113 
00:20	25.7	25.7	25.7	72	17.9	0	2	0	0.00	30.113 
00:25	25.7	25.7	25.7	72	17.9	0	1	0	0.00	30.113 
00:30	25.7	25.7	25.7	72	17.9	0	2	0	0.00	30.117 
00:35	25.6	25.6	25.6	73	18.2	0	2	0	0.00	30.117 
00:40	25.6	25.6	25.6	73	18.2	0	1	0	0.00	30.117 
00:45	25.4	25.4	25.4	75	18.6	0	2	0	0.00	30.116 
00:50	25.3	25.3	25.3	76	18.8	0	1	0	0.00	30.116 
00:55	25.1	25.1	25.1	77	18.9	0	1	338	0.00	30.116 
01:00	25.1	25.1	25.1	77	18.9	0	1	338	0.00	30.116 
01:05	25.1	25.1	25.1	78	19.2	0	1	338	0.00	30.116 
01:10	25.0	25.0	25.0	78	19.1	0	3	315	0.00	30.116 
01:15	25.0	25.0	25.0	78	19.1	0	2	315	0.00	30.114 
01:20	25.0	25.0	25.0	79	19.4	0	2	315	0.00	30.114 
01:25	25.0	25.0	25.0	79	19.4	0	1	315	0.00	30.114 
01:30	25.0	25.0	25.0	79	19.4	0	0	---	0.00	30.114 
01:35	25.0	25.0	25.0	78	19.1	0	3	292	0.00	30.114 
01:40	25.1	25.1	25.1	78	19.2	0	2	292	0.00	30.114 
01:45	25.1	25.1	25.1	78	19.2	0	2	292	0.00	30.111 
01:50	25.1	25.1	25.1	77	18.9	0	2	292	0.00	30.111 
01:55	25.1	25.1	25.1	77	18.9	0	1	292	0.00	30.111 
02:00	25.1	25.1	25.1	77	18.9	0	2	292	0.00	30.111 
02:05	25.1	25.1	25.1	77	18.9	0	1	292	0.00	30.111 
02:10	25.1	25.1	25.1	77	18.9	0	1	292	0.00	30.111 
02:15	25.1	25.1	25.1	78	19.2	0	2	292	0.00	30.111 
02:20	25.1	25.1	25.1	78	19.2	0	1	292	0.00	30.111 
02:25	25.1	25.1	25.1	77	18.9	0	2	292	0.00	30.111 
02:30	25.1	25.1	25.1	77	18.9	0	1	292	0.00	30.108 
02:35	25.1	25.1	25.1	77	18.9	0	0	---	0.00	30.108 
02:40	25.1	25.1	25.1	77	18.9	0	0	---	0.00	30.108 
02:45	25.1	25.1	25.1	77	18.9	0	1	292	0.00	30.104 
02:50	25.1	25.1	25.1	77	18.9	0	1	292	0.00	30.104 
02:55	25.1	25.1	25.1	77	18.9	0	1	292	0.00	30.104 
03:00	25.1	25.1	25.1	78	19.2	0	1	292	0.00	30.100 
03:05	25.3	25.3	25.3	78	19.4	0	1	292	0.00	30.100 
03:10	25.3	25.3	25.3	78	19.4	0	1	292	0.00	30.100 
03:15	25.3	25.3	25.3	78	19.4	0	1	292	0.00	30.099 
03:20	25.3	25.3	25.3	78	19.4	0	1	292	0.00	30.099 
03:25	25.3	25.3	25.3	78	19.4	0	0	---	0.00	30.099 
03:30	25.3	25.3	25.3	78	19.4	0	0	---	0.00	30.098 
03:35	25.3	25.3	25.3	78	19.4	0	0	---	0.00	30.098 
03:40	25.3	25.3	25.3	78	19.4	0	1	292	0.00	30.098 
03:45	25.3	25.3	25.3	77	19.1	0	2	292	0.00	30.097 
03:50	25.3	25.3	25.3	77	19.1	0	2	292	0.00	30.097 
03:55	25.4	25.4	25.4	76	18.9	0	1	292	0.00	30.097 
04:00	25.4	25.4	25.4	76	18.9	1	3	292	0.00	30.096 
04:05	25.4	25.4	25.4	75	18.6	0	2	22	0.00	30.096 
04:10	25.6	25.6	25.6	75	18.8	0	2	22	0.00	30.096 
04:15	25.4	25.4	25.4	75	18.6	0	2	338	0.00	30.097 
04:20	25.4	25.4	25.4	75	18.6	0	3	338	0.00	30.097 
04:25	25.4	25.4	25.4	75	18.6	1	3	338	0.00	30.097 
04:30	25.4	25.4	25.4	75	18.6	0	2	315	0.00	30.098 
04:35	25.4	25.4	25.4	75	18.6	0	3	292	0.00	30.098 
04:40	25.4	25.4	25.4	75	18.6	0	1	315	0.00	30.098 
04:45	25.4	25.4	25.4	75	18.6	0	3	292	0.00	30.098 
04:50	25.4	25.4	25.4	75	18.6	1	3	315	0.00	30.098 
04:55	25.4	25.4	25.4	74	18.3	0	1	315	0.00	30.098 
05:00	25.4	25.4	25.4	74	18.3	0	1	315	0.00	30.097 
05:05	25.4	25.4	25.4	75	18.6	0	1	315	0.00	30.097 
05:10	25.4	25.4	25.4	75	18.6	0	2	315	0.00	30.097 
05:15	25.4	25.4	25.4	75	18.6	0	1	315	0.00	30.095 
05:20	25.4	25.4	25.4	75	18.6	0	2	315	0.00	30.095 
05:25	25.4	25.4	25.4	74	18.3	0	2	315	0.00	30.095 
05:30	25.4	25.4	25.4	74	18.3	0	3	315	0.00	30.097 
05:35	25.3	25.3	25.3	73	17.9	1	3	315	0.00	30.097 
05:40	25.3	25.3	25.3	73	17.9	0	1	0	0.00	30.097 
05:45	25.3	25.3	25.3	73	17.9	1	3	22	0.00	30.096 
05:50	25.3	25.3	25.3	73	17.9	1	4	315	0.00	30.096 
05:55	25.3	25.3	25.3	73	17.9	0	2	315	0.00	30.096 
06:00	25.3	25.3	25.3	73	17.9	0	4	315	0.00	30.095 
06:05	25.3	25.3	25.3	73	17.9	0	1	270	0.00	30.095 
06:10	25.1	25.1	25.1	73	17.7	1	4	270	0.00	30.095 
06:15	25.1	25.1	25.1	73	17.7	1	4	338	0.00	30.097 
06:20	24.8	24.8	24.8	72	17.1	1	3	338	0.00	30.097 
06:25	24.8	24.8	24.8	72	17.1	0	2	315	0.00	30.097 
06:30	24.7	24.7	24.7	72	17.0	0	2	315	0.00	30.098 
06:35	24.7	24.7	24.7	72	17.0	1	3	338	0.00	30.098 
06:40	24.7	24.7	24.7	72	17.0	1	3	315	0.00	30.098 
06:45	24.7	24.7	24.7	72	17.0	1	3	338	0.00	30.100 
06:50	24.5	24.5	24.5	71	16.5	1	4	338	0.00	30.100 
06:55	24.4	24.4	24.4	70	16.0	1	4	338	0.00	30.100 
07:00	24.4	24.4	24.4	70	16.0	1	3	338	0.00	30.109 
07:05	24.4	24.4	24.4	70	16.0	1	3	338	0.00	30.109 
07:10	24.4	24.4	24.4	70	16.0	0	2	270	0.00	30.109 
07:15	24.4	24.4	24.4	71	16.4	0	1	270	0.00	30.115 
07:20	24.4	24.4	24.4	71	16.4	0	2	270	0.00	30.115 
07:25	24.4	24.4	24.4	71	16.4	0	3	315	0.00	30.115 
07:30	24.4	24.4	24.4	71	16.4	0	2	338	0.00	30.116 
07:35	24.4	24.4	24.4	71	16.4	0	3	0	0.00	30.116 
07:40	24.4	24.4	24.4	71	16.4	1	4	248	0.00	30.116 
07:45	24.4	24.4	24.4	70	16.0	1	5	338	0.00	30.116 
07:50	24.4	24.4	24.4	69	15.7	2	6	338	0.00	30.116 
07:55	24.4	24.4	24.4	69	15.7	1	2	270	0.00	30.116 
08:00	24.4	24.4	24.4	69	15.7	1	3	338	0.00	30.117 
08:05	24.5	24.5	24.5	69	15.8	1	4	338	0.00	30.117 
08:10	24.5	24.5	24.5	69	15.8	1	2	338	0.00	30.117 
08:15	24.5	24.5	24.5	69	15.8	0	2	338	0.00	30.119 
08:20	24.7	24.7	24.7	69	16.0	1	2	292	0.00	30.119 
08:25	24.7	24.7	24.7	69	16.0	0	2	315	0.00	30.119 
08:30	24.7	24.7	24.7	69	16.0	1	3	315	0.00	30.120 
08:35	24.7	24.7	24.7	69	16.0	1	4	338	0.00	30.120 
08:40	24.8	24.8	24.8	70	16.4	0	2	338	0.00	30.120 
08:45	24.8	24.8	24.8	70	16.4	0	2	338	0.00	30.123 
08:50	24.8	24.8	24.8	70	16.4	1	3	338	0.00	30.123 
08:55	24.8	24.8	24.8	70	16.4	1	3	338	0.00	30.123 
09:00	24.8	24.8	24.8	70	16.4	1	6	338	0.00	30.120 
09:05	25.0	25.0	25.0	70	16.6	1	4	338	0.00	30.120 
09:10	25.0	25.0	25.0	70	16.6	1	2	338	0.00	30.120 
09:15	25.1	25.1	25.1	70	16.7	1	4	270	0.00	30.120 
09:20	25.3	25.3	25.3	70	16.9	1	3	292	0.00	30.120 
09:25	25.4	25.4	25.4	69	16.7	1	5	292	0.00	30.120 
09:30	25.4	25.4	25.4	69	16.7	1	4	315	0.00	30.118 
09:35	25.4	25.4	25.4	68	16.3	2	4	315	0.00	30.118 
09:40	25.6	25.6	25.6	68	16.5	1	5	315	0.00	30.118 
09:45	25.6	25.6	25.6	68	16.5	0	2	0	0.00	30.118 
09:50	25.7	25.7	25.7	68	16.6	1	4	22	0.00	30.118 
09:55	25.7	25.7	25.7	67	16.3	1	6	315	0.00	30.118 
10:00	25.7	25.7	25.7	66	15.9	1	4	338	0.00	30.118 
10:05	25.8	25.8	25.8	66	16.0	1	4	338	0.00	30.118 
10:10	25.8	25.8	25.8	66	16.0	1	5	338	0.00	30.118 
10:15	25.8	25.8	25.8	65	15.7	2	4	0	0.00	30.118 
10:20	25.8	25.8	25.8	64	15.3	1	5	338	0.00	30.118 
10:25	26.0	26.0	26.0	64	15.5	1	4	338	0.00	30.118 
10:30	26.0	26.0	26.0	64	15.5	1	4	338	0.00	30.120 
10:35	26.0	26.0	26.0	63	15.2	2	5	338	0.00	30.120 
10:40	26.0	26.0	26.0	64	15.5	1	4	0	0.00	30.120 
10:45	26.0	26.0	26.0	64	15.5	1	2	0	0.00	30.118 
10:50	26.0	26.0	26.0	64	15.5	2	5	338	0.00	30.118 
10:55	26.1	26.1	26.1	64	15.6	2	7	22	0.00	30.118 
11:00	26.1	26.1	26.1	64	15.6	1	4	338	0.00	30.119 
11:05	26.3	26.3	26.3	64	15.8	1	3	0	0.00	30.119 
11:10	26.6	26.6	26.6	64	16.1	1	3	338	0.00	30.119 
11:15	26.7	26.7	26.7	63	15.8	1	4	0	0.00	30.116 
11:20	26.7	26.7	26.7	63	15.8	1	4	338	0.00	30.116 
11:25	26.9	26.9	26.9	63	16.0	1	4	338	0.00	30.116 
11:30	26.9	26.9	26.9	63	16.0	1	3	338	0.00	30.115 
11:35	27.0	27.0	27.0	63	16.1	1	4	338	0.00	30.115 
11:40	26.9	26.9	26.9	62	15.6	2	4	338	0.00	30.115 
11:45	26.7	26.7	26.7	63	15.8	1	3	338	0.00	30.114 
11:50	26.7	26.7	26.7	62	15.5	2	4	338	0.00	30.114 
11:55	26.9	26.9	26.9	62	15.6	1	4	292	0.00	30.114 
12:00	27.0	27.0	27.0	62	15.7	1	7	0	0.00	30.114 
12:05	27.0	27.0	27.0	62	15.7	2	5	0	0.00	30.114 
12:10	27.2	27.2	27.2	61	15.6	1	5	0	0.00	30.114 
12:15	27.3	27.3	27.3	61	15.7	2	6	338	0.00	30.114 
12:20	27.6	27.6	27.6	62	16.3	2	5	338	0.00	30.114 
12:25	28.1	28.1	28.1	59	15.6	1	4	45	0.00	30.114 
12:30	28.4	28.4	28.4	59	15.9	1	5	338	0.00	30.111 
12:35	28.7	28.7	28.7	59	16.2	1	3	0	0.00	30.111 
12:40	28.4	28.4	28.4	59	15.9	1	4	338	0.00	30.111 
12:45	28.7	28.7	28.7	60	16.6	1	3	45	0.00	30.107 
12:50	28.8	28.8	28.8	59	16.3	1	3	338	0.00	30.107 
12:55	28.8	28.8	28.8	58	15.9	1	4	315	0.00	30.107 
13:00	28.5	28.5	28.5	59	16.0	1	3	22	0.00	30.100 
13:05	28.7	28.7	28.7	58	15.8	1	7	45	0.00	30.100 
13:10	28.8	28.8	28.8	59	16.3	1	3	22	0.00	30.100 
13:15	28.8	28.8	28.8	59	16.3	1	6	0	0.00	30.096 
13:20	28.7	28.7	28.7	58	15.8	1	3	338	0.00	30.096 
13:25	28.8	28.8	28.8	60	16.7	1	3	338	0.00	30.096 
13:30	28.5	28.5	28.5	59	16.0	2	4	338	0.00	30.093 
13:35	28.8	28.8	28.8	59	16.3	1	3	0	0.00	30.093 
13:40	29.0	29.0	29.0	59	16.5	1	3	338	0.00	30.093 
13:45	29.4	29.4	29.4	60	17.3	1	4	315	0.00	30.088 
13:50	29.3	29.3	29.3	58	16.4	2	5	338	0.00	30.088 
13:55	29.4	29.4	29.4	58	16.5	1	2	338	0.00	30.088 
14:00	29.5	29.5	29.5	58	16.6	1	4	338	0.00	30.084 
14:05	29.4	29.4	29.4	58	16.5	1	3	338	0.00	30.084 
14:10	29.4	29.4	29.4	58	16.5	1	3	338	0.00	30.084 
14:15	30.0	30.0	30.0	60	17.8	0	3	315	0.00	30.081 
14:20	30.1	30.1	30.1	57	16.7	2	4	292	0.00	30.081 
14:25	29.8	29.8	29.8	57	16.4	1	4	338	0.00	30.081 
14:30	30.3	30.3	30.3	57	16.9	1	4	338	0.00	30.080 
14:35	30.0	30.0	30.0	57	16.6	1	6	270	0.00	30.080 
14:40	30.1	30.1	30.1	57	16.7	0	3	45	0.00	30.080 
14:45	30.3	30.3	30.3	58	17.3	1	3	45	0.00	30.076 
14:50	30.4	30.4	30.4	57	17.0	2	6	0	0.00	30.076 
14:55	30.4	30.4	30.4	56	16.6	1	3	0	0.00	30.076 
15:00	30.3	30.3	30.3	55	16.1	1	5	315	0.00	30.073 
15:05	30.6	30.6	30.6	56	16.8	1	3	292	0.00	30.073 
15:10	30.6	30.6	30.6	55	16.4	2	4	315	0.00	30.073 
15:15	30.9	30.9	30.9	56	17.1	1	5	270	0.00	30.070 
15:20	31.3	31.3	31.3	57	17.9	1	4	270	0.00	30.070 
15:25	30.9	30.9	30.9	56	17.1	2	4	338	0.00	30.070 
15:30	30.6	30.6	30.6	55	16.4	1	2	338	0.00	30.071 
15:35	30.3	30.3	30.3	56	16.5	1	3	248	0.00	30.071 
15:40	30.3	30.3	30.3	56	16.5	1	5	0	0.00	30.071 
15:45	30.4	30.4	30.4	56	16.6	1	4	338	0.00	30.075 
15:50	30.4	30.4	30.4	56	16.6	1	2	338	0.00	30.075 
15:55	30.3	30.3	30.3	56	16.5	1	4	292	0.00	30.075 
16:00	30.0	30.0	30.0	56	16.2	1	4	338	0.00	30.076 
16:05	29.8	29.8	29.8	57	16.4	1	4	0	0.00	30.076 
16:10	29.7	29.7	29.7	57	16.4	1	3	338	0.00	30.076 
16:15	29.7	29.7	29.7	57	16.4	1	3	338	0.00	30.077 
16:20	29.5	29.5	29.5	57	16.2	1	4	338	0.00	30.077 
16:25	29.4	29.4	29.4	57	16.1	1	3	22	0.00	30.077 
16:30	29.4	29.4	29.4	58	16.5	0	2	45	0.00	30.080 
16:35	29.4	29.4	29.4	58	16.5	0	3	22	0.00	30.080 
16:40	29.4	29.4	29.4	58	16.5	1	5	22	0.00	30.080 
16:45	29.3	29.3	29.3	58	16.4	0	2	0	0.00	30.081 
16:50	29.3	29.3	29.3	58	16.4	0	2	0	0.00	30.081 
16:55	29.3	29.3	29.3	58	16.4	0	2	22	0.00	30.081 
17:00	29.1	29.1	29.1	57	15.8	1	3	270	0.00	30.081 
17:05	29.0	29.0	29.0	58	16.1	1	5	22	0.00	30.081 
17:10	29.0	29.0	29.0	57	15.7	1	3	0	0.00	30.081 
17:15	29.0	29.0	29.0	58	16.1	1	3	45	0.00	30.081 
17:20	28.8	28.8	28.8	58	15.9	1	2	338	0.00	30.081 
17:25	29.0	29.0	29.0	58	16.1	1	3	338	0.00	30.081 
17:30	28.8	28.8	28.8	58	15.9	1	3	292	0.00	30.081 
17:35	28.8	28.8	28.8	58	15.9	1	3	315	0.00	30.081 
17:40	28.8	28.8	28.8	57	15.5	0	2	315	0.00	30.081 
17:45	28.8	28.8	28.8	58	15.9	0	2	338	0.00	30.085 
17:50	28.8	28.8	28.8	58	15.9	1	3	292	0.00	30.085 
17:55	28.8	28.8	28.8	57	15.5	1	4	338	0.00	30.085 
18:00	28.8	28.8	28.8	57	15.5	0	1	338	0.00	30.087 
18:05	28.8	28.8	28.8	58	15.9	0	3	338	0.00	30.087 
18:10	28.8	28.8	28.8	58	15.9	0	2	338	0.00	30.087 
18:15	28.7	28.7	28.7	59	16.2	0	2	338	0.00	30.090 
18:20	28.7	28.7	28.7	59	16.2	0	1	338	0.00	30.090 
18:25	28.7	28.7	28.7	59	16.2	0	1	338	0.00	30.090 
18:30	28.7	28.7	28.7	60	16.6	0	1	338	0.00	30.094 
18:35	28.5	28.5	28.5	61	16.8	0	2	338	0.00	30.094 
18:40	28.4	28.4	28.4	61	16.7	0	1	338	0.00	30.094 
18:45	28.4	28.4	28.4	61	16.7	0	2	338	0.00	30.097 
18:50	28.2	28.2	28.2	61	16.5	0	1	338	0.00	30.097 
18:55	28.2	28.2	28.2	61	16.5	0	1	338	0.00	30.097 
19:00	28.1	28.1	28.1	61	16.4	0	1	338	0.00	30.099 
19:05	28.1	28.1	28.1	62	16.8	0	1	338	0.00	30.099 
19:10	28.1	28.1	28.1	62	16.8	0	1	338	0.00	30.099 
19:15	28.1	28.1	28.1	61	16.4	0	2	338	0.00	30.100 
19:20	27.9	27.9	27.9	61	16.2	0	2	338	0.00	30.100 
19:25	27.9	27.9	27.9	62	16.6	0	1	338	0.00	30.100 
19:30	27.9	27.9	27.9	62	16.6	0	2	338	0.00	30.103 
19:35	27.9	27.9	27.9	62	16.6	0	2	0	0.00	30.103 
19:40	27.9	27.9	27.9	62	16.6	0	2	0	0.00	30.103 
19:45	27.8	27.8	27.8	62	16.5	0	1	0	0.00	30.104 
19:50	27.8	27.8	27.8	62	16.5	0	2	0	0.00	30.104 
19:55	27.6	27.6	27.6	62	16.3	0	2	0	0.00	30.104 
20:00	27.6	27.6	27.6	63	16.7	0	1	0	0.00	30.102 
20:05	27.5	27.5	27.5	63	16.6	0	2	0	0.00	30.102 
20:10	27.5	27.5	27.5	63	16.6	0	2	0	0.00	30.102 
20:15	27.5	27.5	27.5	63	16.6	0	1	0	0.00	30.101 
20:20	27.5	27.5	27.5	63	16.6	0	2	0	0.00	30.101 
20:25	27.3	27.3	27.3	62	16.0	0	2	22	0.00	30.101 
20:30	27.3	27.3	27.3	62	16.0	0	1	22	0.00	30.099 
20:35	27.3	27.3	27.3	62	16.0	0	1	0	0.00	30.099 
20:40	27.3	27.3	27.3	63	16.4	0	1	0	0.00	30.099 
20:45	27.3	27.3	27.3	63	16.4	0	2	0	0.00	30.099 
20:50	27.2	27.2	27.2	63	16.3	0	3	0	0.00	30.099 
20:55	27.2	27.2	27.2	63	16.3	0	1	0	0.00	30.099 
21:00	27.2	27.2	27.2	63	16.3	0	1	0	0.00	30.101 
21:05	27.2	27.2	27.2	63	16.3	0	2	0	0.00	30.101 
21:10	27.0	27.0	27.0	63	16.1	0	2	0	0.00	30.101 
21:15	27.0	27.0	27.0	63	16.1	0	2	0	0.00	30.102 
21:20	27.0	27.0	27.0	63	16.1	1	3	0	0.00	30.102 
21:25	27.0	27.0	27.0	63	16.1	0	3	315	0.00	30.102 
21:30	26.9	26.9	26.9	62	15.6	1	4	22	0.00	30.108 
21:35	26.9	26.9	26.9	62	15.6	1	3	22	0.00	30.108 
21:40	26.9	26.9	26.9	63	16.0	0	2	45	0.00	30.108 
21:45	26.7	26.7	26.7	63	15.8	0	3	45	0.00	30.112 
21:50	26.7	26.7	26.7	63	15.8	0	1	22	0.00	30.112 
21:55	26.7	26.7	26.7	62	15.5	1	4	338	0.00	30.112 
22:00	26.7	26.7	26.7	62	15.5	1	4	338	0.00	30.113 
22:05	26.7	26.7	26.7	62	15.5	0	2	338	0.00	30.113 
22:10	26.7	26.7	26.7	63	15.8	0	2	338	0.00	30.113 
22:15	26.6	26.6	26.6	63	15.7	0	2	338	0.00	30.113 
22:20	26.6	26.6	26.6	62	15.4	1	3	338	0.00	30.113 
22:25	26.6	26.6	26.6	63	15.7	0	3	338	0.00	30.113 
22:30	26.6	26.6	26.6	62	15.4	1	3	315	0.00	30.112 
22:35	26.6	26.6	26.6	63	15.7	1	3	315	0.00	30.112 
22:40	26.4	26.4	26.4	62	15.2	1	5	315	0.00	30.112 
22:45	26.3	26.3	26.3	60	14.3	2	6	0	0.00	30.112 
22:50	26.1	26.1	26.1	60	14.1	1	3	315	0.00	30.112 
22:55	26.1	26.1	26.1	60	14.1	0	2	338	0.00	30.112 
23:00	26.0	26.0	26.0	60	14.0	2	4	338	0.00	30.109 
23:05	25.8	25.8	25.8	61	14.2	2	4	270	0.00	30.109 
23:10	25.8	25.8	25.8	61	14.2	0	2	270	0.00	30.109 
23:15	25.7	25.7	25.7	62	14.5	1	4	270	0.00	30.107 
23:20	25.6	25.6	25.6	62	14.4	1	2	338	0.00	30.107 
23:25	25.4	25.4	25.4	62	14.2	1	4	315	0.00	30.107 
23:30	25.3	25.3	25.3	63	14.5	1	3	292	0.00	30.109 
23:35	25.1	25.1	25.1	63	14.3	0	3	338	0.00	30.109 
23:40	25.1	25.1	25.1	64	14.7	1	3	315	0.00	30.109 
23:45	25.1	25.1	25.1	64	14.7	0	3	315	0.00	30.110 
23:50	25.1	25.1	25.1	64	14.7	1	3	315	0.00	30.110 
23:55	25.1	25.1	25.1	64	14.7	1	4	270	0.00	30.110 

CoCoRaHS
IN-AL-39
A2 Web Hosting
Creative Commons License
GoDaddy
search engine by freefind advanced

loaded 2018-11-17 22:52:55 • last modified 2010-11-18 10:43:29
Privacy PolicyDisclaimer
• wx.awcolley.com is powered by PmWiki v.2002016 •
• all content (unless otherwise noted) © 2018 A W Colley